createdAt,value
2018-11-26T00:02:04.009Z,39.97
2018-11-26T00:07:07.739Z,46.10
2018-11-26T00:12:11.409Z,40.43
2018-11-26T00:17:14.812Z,53.93
2018-11-26T00:22:18.241Z,43.57
2018-11-26T00:27:21.673Z,50.80
2018-11-26T00:32:25.024Z,47.43
2018-11-26T00:37:35.633Z,48.83
2018-11-26T00:42:58.368Z,48.40
2018-11-26T00:48:01.802Z,43.83
2018-11-26T00:53:06.306Z,47.57
2018-11-26T00:58:09.703Z,45.00
2018-11-26T01:03:13.155Z,46.37
2018-11-26T01:08:36.086Z,47.00
2018-11-26T01:13:39.592Z,49.07
2018-11-26T01:18:43.147Z,47.67
2018-11-26T01:23:46.518Z,43.07
2018-11-26T01:28:49.914Z,47.43
2018-11-26T01:33:53.674Z,51.67
2018-11-26T01:38:57.048Z,51.57
2018-11-26T01:44:00.458Z,45.07
2018-11-26T01:49:03.927Z,46.97
2018-11-26T01:54:07.574Z,50.10
2018-11-26T01:59:10.944Z,46.50
2018-11-26T02:04:14.308Z,44.30
2018-11-26T02:09:17.652Z,42.20
2018-11-26T02:14:21.205Z,47.47
2018-11-26T02:19:24.591Z,44.07
2018-11-26T02:24:27.999Z,48.33
2018-11-26T02:29:31.366Z,47.63
2018-11-26T02:34:34.761Z,50.07
2018-11-26T02:39:38.285Z,52.17
2018-11-26T02:44:41.696Z,43.53
2018-11-26T02:49:45.100Z,43.50
2018-11-26T02:54:48.658Z,50.07
2018-11-26T02:59:51.940Z,46.73
2018-11-26T03:04:55.289Z,48.70
2018-11-26T03:15:11.534Z,47.20
2018-11-26T03:20:14.947Z,49.97
2018-11-26T03:25:18.385Z,51.83
2018-11-26T03:30:41.133Z,56.63
2018-11-26T03:40:54.288Z,48.77
2018-11-26T03:45:57.913Z,51.73
2018-11-26T03:51:01.262Z,48.07
2018-11-26T03:56:05.156Z,51.63
2018-11-26T04:01:08.620Z,52.20
2018-11-26T04:06:12.208Z,49.13
2018-11-26T04:11:15.607Z,39.83
2018-11-26T04:21:27.737Z,45.37
2018-11-26T04:26:31.174Z,47.40
2018-11-26T04:31:34.545Z,44.43
2018-11-26T04:41:47.384Z,47.70
2018-11-26T04:46:53.235Z,46.57
2018-11-26T04:51:56.637Z,47.43
2018-11-26T04:57:00.055Z,45.63
2018-11-26T05:02:03.413Z,42.07
2018-11-26T05:07:06.815Z,52.60
2018-11-26T05:12:10.222Z,49.90
2018-11-26T05:17:13.581Z,45.93
2018-11-26T05:22:16.943Z,41.17
2018-11-26T05:27:20.387Z,45.40
2018-11-26T05:32:23.793Z,46.03
2018-11-26T05:37:27.214Z,45.43
2018-11-26T05:42:30.613Z,44.27
2018-11-26T05:47:33.999Z,43.53
2018-11-26T05:52:38.370Z,54.50
2018-11-26T05:57:41.842Z,57.20
2018-11-26T06:02:45.210Z,45.37
2018-11-26T06:07:48.558Z,49.33
2018-11-26T06:12:51.951Z,42.87
2018-11-26T06:17:55.297Z,47.93
2018-11-26T06:22:58.672Z,44.20
2018-11-26T06:28:21.447Z,43.23
2018-11-26T06:33:24.915Z,43.07
2018-11-26T06:38:28.264Z,46.23
2018-11-26T06:43:31.626Z,41.83
2018-11-26T06:48:35.024Z,42.07
2018-11-26T06:53:38.448Z,50.97
2018-11-26T06:59:01.187Z,49.13
2018-11-26T07:09:13.985Z,47.30
2018-11-26T07:14:17.509Z,48.10
2018-11-26T07:19:20.965Z,57.20
2018-11-26T07:24:24.354Z,50.70
2018-11-26T07:29:27.767Z,59.00
2018-11-26T07:34:31.101Z,49.30
2018-11-26T07:39:34.661Z,56.43
2018-11-26T07:44:38.018Z,57.80
2018-11-26T07:49:41.394Z,60.20
2018-11-26T07:54:44.789Z,54.23
2018-11-26T07:59:48.179Z,58.93
2018-11-26T08:04:51.696Z,57.17
2018-11-26T08:10:15.360Z,50.60
2018-11-26T08:15:38.546Z,50.47
2018-11-26T08:25:50.764Z,55.57
2018-11-26T08:30:54.127Z,59.27
2018-11-26T08:36:16.828Z,56.23
2018-11-26T08:41:36.170Z,56.30
2018-11-26T08:47:17.972Z,57.13
2018-11-26T08:57:31.235Z,59.73
2018-11-26T09:02:45.293Z,54.70
2018-11-26T09:07:48.767Z,55.23
2018-11-26T09:12:52.079Z,49.73
2018-11-26T09:17:55.491Z,52.13
2018-11-26T09:22:58.903Z,58.53
2018-11-26T09:28:02.316Z,53.70
2018-11-26T09:33:06.140Z,46.83
2018-11-26T09:38:09.513Z,52.10
2018-11-26T09:43:12.884Z,50.30
2018-11-26T09:48:16.206Z,53.33
2018-11-26T09:53:19.617Z,49.53
2018-11-26T09:58:23.010Z,44.00
2018-11-26T10:03:26.419Z,47.40
2018-11-26T10:08:49.284Z,37.87
2018-11-26T10:13:52.639Z,40.63
2018-11-26T10:18:55.985Z,45.03
2018-11-26T10:23:59.332Z,43.97
2018-11-26T10:29:02.693Z,37.30
2018-11-26T10:39:15.844Z,44.13
2018-11-26T10:44:19.198Z,47.90
2018-11-26T10:49:22.597Z,47.57
2018-11-26T10:54:26.063Z,47.20
2018-11-26T10:59:29.418Z,45.63
2018-11-26T11:04:32.816Z,49.97
2018-11-26T11:09:36.306Z,48.13
2018-11-26T11:14:39.599Z,41.33
2018-11-26T11:19:43.001Z,42.07
2018-11-26T11:24:46.390Z,46.93
2018-11-26T11:29:49.724Z,48.57
2018-11-26T11:34:53.376Z,41.83
2018-11-26T11:39:56.870Z,47.07
2018-11-26T11:45:00.135Z,45.93
2018-11-26T11:50:03.513Z,42.33
2018-11-26T11:55:27.288Z,43.77
2018-11-26T12:00:53.374Z,43.93
2018-11-26T12:05:56.815Z,38.20
2018-11-26T12:11:00.236Z,42.03
2018-11-26T12:16:03.571Z,40.30
2018-11-26T12:21:06.991Z,41.97
2018-11-26T12:26:10.477Z,36.30
2018-11-26T12:31:13.873Z,40.77
2018-11-26T12:36:17.223Z,38.47
2018-11-26T12:41:20.878Z,42.43
2018-11-26T12:46:24.224Z,44.40
2018-11-26T12:51:27.608Z,41.17
2018-11-26T12:56:30.967Z,36.20
2018-11-26T13:01:34.371Z,40.97
2018-11-26T13:06:37.744Z,44.60
2018-11-26T13:11:41.146Z,42.70
2018-11-26T13:16:44.557Z,37.50
2018-11-26T13:21:47.867Z,44.67
2018-11-26T13:26:51.204Z,35.90
2018-11-26T13:31:54.654Z,41.93
2018-11-26T13:36:58.240Z,39.30
2018-11-26T13:42:01.524Z,37.17
2018-11-26T13:47:05.095Z,38.70
2018-11-26T13:52:08.448Z,44.00
2018-11-26T13:57:11.814Z,35.60
2018-11-26T14:02:19.862Z,37.97
2018-11-26T14:07:23.408Z,40.27
2018-11-26T14:12:26.820Z,37.13
2018-11-26T14:17:30.146Z,37.37
2018-11-26T14:22:33.512Z,39.80
2018-11-26T14:27:37.101Z,37.63
2018-11-26T14:32:40.504Z,36.37
2018-11-26T14:37:44.185Z,41.90
2018-11-26T14:42:47.719Z,35.10
2018-11-26T14:47:51.162Z,33.83
2018-11-26T14:52:54.587Z,33.33
2018-11-26T14:57:58.087Z,34.23
2018-11-26T15:08:10.439Z,36.10
2018-11-26T15:13:13.975Z,37.40
2018-11-26T15:18:17.440Z,37.17
2018-11-26T15:23:20.845Z,31.17
2018-11-26T15:33:33.243Z,33.33
2018-11-26T15:48:55.594Z,34.03
2018-11-26T15:59:07.527Z,34.43
2018-11-26T16:04:10.874Z,33.07
2018-11-26T16:09:14.377Z,31.53
2018-11-26T16:14:17.752Z,34.40
2018-11-26T16:19:21.250Z,31.67
2018-11-26T16:24:24.601Z,35.30
2018-11-26T16:39:46.492Z,29.87
2018-11-26T16:44:49.967Z,35.07
2018-11-26T16:49:53.495Z,41.13
2018-11-26T16:55:06.833Z,33.23
2018-11-26T17:00:33.421Z,33.00
2018-11-26T17:11:05.725Z,34.47
2018-11-26T17:16:09.173Z,37.77
2018-11-26T17:21:12.726Z,34.83
2018-11-26T17:36:34.763Z,35.87
2018-11-26T17:41:38.284Z,36.80
2018-11-26T17:46:41.796Z,36.23
2018-11-26T17:51:45.305Z,33.53
2018-11-26T18:02:17.426Z,36.90
2018-11-26T18:07:20.919Z,41.57
2018-11-26T18:12:24.411Z,40.20
2018-11-26T18:33:18.914Z,39.37
2018-11-26T18:38:22.537Z,36.43
2018-11-26T18:43:26.606Z,49.30
2018-11-26T19:19:48.623Z,53.07
2018-11-26T19:35:25.534Z,51.57
2018-11-26T19:40:29.060Z,46.67
2018-11-26T19:45:32.591Z,43.73
2018-11-26T20:00:55.085Z,52.83
2018-11-26T20:06:19.422Z,45.37
2018-11-26T20:11:35.050Z,51.07
2018-11-26T20:16:50.988Z,46.30
2018-11-26T20:21:54.642Z,50.77
2018-11-26T20:26:58.162Z,48.97
2018-11-26T20:32:01.858Z,48.13
2018-11-26T20:52:36.990Z,49.17
2018-11-26T20:57:41.659Z,49.77
2018-11-26T21:02:46.022Z,48.70
2018-11-26T21:07:50.247Z,50.90
2018-11-26T21:12:53.599Z,47.87
2018-11-26T21:17:58.227Z,52.77
2018-11-26T21:23:01.686Z,48.20
2018-11-26T21:28:05.433Z,54.27
2018-11-26T21:33:08.806Z,54.47
2018-11-26T21:38:12.724Z,57.50
2018-11-26T21:43:16.684Z,59.87
2018-11-26T21:48:20.257Z,50.63
2018-11-26T21:53:23.881Z,63.87
2018-11-26T21:58:27.296Z,52.30
2018-11-26T22:03:30.771Z,53.17
2018-11-26T22:08:34.394Z,53.13
2018-11-26T22:13:37.886Z,55.10
2018-11-26T22:18:41.344Z,48.40
2018-11-26T22:23:44.662Z,54.87
2018-11-26T22:28:48.035Z,57.20
2018-11-26T22:33:51.437Z,53.23
2018-11-26T22:38:56.110Z,56.20
2018-11-26T22:43:58.299Z,47.10
2018-11-26T22:54:10.606Z,52.43
2018-11-26T22:59:14.023Z,61.77
2018-11-26T23:04:17.431Z,54.23
2018-11-26T23:09:20.802Z,51.53
2018-11-26T23:14:24.172Z,49.40
2018-11-26T23:19:27.656Z,56.40
2018-11-26T23:24:31.211Z,55.47
2018-11-26T23:29:34.639Z,50.90
2018-11-26T23:34:38.126Z,64.20
2018-11-26T23:39:41.453Z,50.80
2018-11-26T23:44:44.873Z,50.90
2018-11-26T23:49:48.246Z,51.93
2018-11-26T23:54:51.688Z,55.30
2018-11-26T23:59:55.036Z,53.83
